sensor_id;sensor_type;location;lat;lon;timestamp;temperature;humidity
43541;DHT22;29549;40.386;-3.710;2022-12-18T00:08:26;11.40;80.00
43541;DHT22;29549;40.386;-3.710;2022-12-18T00:18:28;11.20;80.50
43541;DHT22;29549;40.386;-3.710;2022-12-18T00:28:30;11.20;80.50
43541;DHT22;29549;40.386;-3.710;2022-12-18T00:38:33;11.00;80.50
43541;DHT22;29549;40.386;-3.710;2022-12-18T00:48:35;10.60;81.90
43541;DHT22;29549;40.386;-3.710;2022-12-18T00:58:37;10.50;82.20
43541;DHT22;29549;40.386;-3.710;2022-12-18T01:08:39;10.40;82.60
43541;DHT22;29549;40.386;-3.710;2022-12-18T01:18:41;10.40;82.70
43541;DHT22;29549;40.386;-3.710;2022-12-18T01:28:44;10.40;82.50
43541;DHT22;29549;40.386;-3.710;2022-12-18T01:38:47;10.40;82.70
43541;DHT22;29549;40.386;-3.710;2022-12-18T01:49:00;10.40;82.60
43541;DHT22;29549;40.386;-3.710;2022-12-18T01:59:08;10.30;83.30
43541;DHT22;29549;40.386;-3.710;2022-12-18T02:09:19;10.20;83.30
43541;DHT22;29549;40.386;-3.710;2022-12-18T02:30:04;10.20;83.30
43541;DHT22;29549;40.386;-3.710;2022-12-18T02:40:15;10.10;82.80
43541;DHT22;29549;40.386;-3.710;2022-12-18T02:50:44;10.10;83.10
43541;DHT22;29549;40.386;-3.710;2022-12-18T03:11:15;9.70;82.80
43541;DHT22;29549;40.386;-3.710;2022-12-18T03:21:22;9.80;82.70
43541;DHT22;29549;40.386;-3.710;2022-12-18T03:31:28;9.70;82.70
43541;DHT22;29549;40.386;-3.710;2022-12-18T03:42:03;9.70;83.00
43541;DHT22;29549;40.386;-3.710;2022-12-18T04:02:25;9.70;83.00
43541;DHT22;29549;40.386;-3.710;2022-12-18T04:12:29;9.70;82.90
43541;DHT22;29549;40.386;-3.710;2022-12-18T04:22:34;9.70;83.00
43541;DHT22;29549;40.386;-3.710;2022-12-18T04:32:38;9.70;83.10
43541;DHT22;29549;40.386;-3.710;2022-12-18T04:42:42;9.70;82.50
43541;DHT22;29549;40.386;-3.710;2022-12-18T04:52:45;9.60;82.60
43541;DHT22;29549;40.386;-3.710;2022-12-18T05:02:48;9.60;82.80
43541;DHT22;29549;40.386;-3.710;2022-12-18T05:12:52;9.60;82.70
43541;DHT22;29549;40.386;-3.710;2022-12-18T05:23:02;9.60;82.90
43541;DHT22;29549;40.386;-3.710;2022-12-18T05:33:05;9.70;82.90
43541;DHT22;29549;40.386;-3.710;2022-12-18T05:43:11;9.70;82.20
43541;DHT22;29549;40.386;-3.710;2022-12-18T05:53:18;9.70;82.90
43541;DHT22;29549;40.386;-3.710;2022-12-18T06:03:21;9.60;83.10
43541;DHT22;29549;40.386;-3.710;2022-12-18T06:13:24;9.70;83.30
43541;DHT22;29549;40.386;-3.710;2022-12-18T06:23:27;9.70;83.10
43541;DHT22;29549;40.386;-3.710;2022-12-18T06:33:48;9.80;83.00
43541;DHT22;29549;40.386;-3.710;2022-12-18T06:44:09;9.90;82.90
43541;DHT22;29549;40.386;-3.710;2022-12-18T06:54:30;9.80;82.10
43541;DHT22;29549;40.386;-3.710;2022-12-18T07:04:45;10.00;81.60
43541;DHT22;29549;40.386;-3.710;2022-12-18T07:14:51;10.00;80.40
43541;DHT22;29549;40.386;-3.710;2022-12-18T07:25:00;9.90;80.60
43541;DHT22;29549;40.386;-3.710;2022-12-18T07:35:08;9.90;80.70
43541;DHT22;29549;40.386;-3.710;2022-12-18T07:45:18;10.00;80.90
43541;DHT22;29549;40.386;-3.710;2022-12-18T07:55:25;10.00;81.00
43541;DHT22;29549;40.386;-3.710;2022-12-18T08:05:30;10.00;81.20
43541;DHT22;29549;40.386;-3.710;2022-12-18T08:15:32;10.00;81.10
43541;DHT22;29549;40.386;-3.710;2022-12-18T08:25:35;10.00;81.30
43541;DHT22;29549;40.386;-3.710;2022-12-18T08:35:37;10.00;81.10
43541;DHT22;29549;40.386;-3.710;2022-12-18T08:45:39;9.90;81.20
43541;DHT22;29549;40.386;-3.710;2022-12-18T08:55:41;9.90;81.00
43541;DHT22;29549;40.386;-3.710;2022-12-18T09:05:48;10.00;80.60
43541;DHT22;29549;40.386;-3.710;2022-12-18T09:15:51;10.10;80.40
43541;DHT22;29549;40.386;-3.710;2022-12-18T09:25:59;10.20;80.40
43541;DHT22;29549;40.386;-3.710;2022-12-18T09:36:03;10.20;80.40
43541;DHT22;29549;40.386;-3.710;2022-12-18T09:46:09;10.40;79.90
43541;DHT22;29549;40.386;-3.710;2022-12-18T09:56:19;10.40;80.30
43541;DHT22;29549;40.386;-3.710;2022-12-18T10:27:23;11.80;74.50
43541;DHT22;29549;40.386;-3.710;2022-12-18T10:37:29;11.40;76.50
43541;DHT22;29549;40.386;-3.710;2022-12-18T10:47:34;11.20;77.40
43541;DHT22;29549;40.386;-3.710;2022-12-18T10:57:38;11.10;77.60
43541;DHT22;29549;40.386;-3.710;2022-12-18T11:07:50;11.30;77.00
43541;DHT22;29549;40.386;-3.710;2022-12-18T11:17:53;11.20;77.10
43541;DHT22;29549;40.386;-3.710;2022-12-18T11:28:01;11.30;76.70
43541;DHT22;29549;40.386;-3.710;2022-12-18T11:48:58;11.50;75.60
43541;DHT22;29549;40.386;-3.710;2022-12-18T11:59:24;11.70;75.10
43541;DHT22;29549;40.386;-3.710;2022-12-18T12:30:21;12.00;72.10
43541;DHT22;29549;40.386;-3.710;2022-12-18T12:40:27;12.10;71.50
43541;DHT22;29549;40.386;-3.710;2022-12-18T12:50:32;12.20;71.30
43541;DHT22;29549;40.386;-3.710;2022-12-18T13:10:59;12.50;69.30
43541;DHT22;29549;40.386;-3.710;2022-12-18T13:21:24;12.60;68.80
43541;DHT22;29549;40.386;-3.710;2022-12-18T13:41:43;12.80;67.80
43541;DHT22;29549;40.386;-3.710;2022-12-18T13:51:55;14.10;66.10
43541;DHT22;29549;40.386;-3.710;2022-12-18T14:02:00;13.20;64.70
43541;DHT22;29549;40.386;-3.710;2022-12-18T14:12:12;12.90;65.30
43541;DHT22;29549;40.386;-3.710;2022-12-18T14:22:34;12.70;65.40
43541;DHT22;29549;40.386;-3.710;2022-12-18T14:32:36;12.70;66.00
43541;DHT22;29549;40.386;-3.710;2022-12-18T14:42:38;12.80;64.70
43541;DHT22;29549;40.386;-3.710;2022-12-18T14:52:40;12.80;64.30
43541;DHT22;29549;40.386;-3.710;2022-12-18T15:02:42;12.80;64.30
43541;DHT22;29549;40.386;-3.710;2022-12-18T15:13:09;12.80;64.40
43541;DHT22;29549;40.386;-3.710;2022-12-18T15:33:26;12.70;64.90
43541;DHT22;29549;40.386;-3.710;2022-12-18T15:43:29;12.70;64.50
43541;DHT22;29549;40.386;-3.710;2022-12-18T15:53:38;12.70;64.90
43541;DHT22;29549;40.386;-3.710;2022-12-18T16:03:40;12.50;64.70
43541;DHT22;29549;40.386;-3.710;2022-12-18T16:13:42;12.50;64.70
43541;DHT22;29549;40.386;-3.710;2022-12-18T16:23:43;12.50;66.30
43541;DHT22;29549;40.386;-3.710;2022-12-18T16:33:45;12.50;65.30
43541;DHT22;29549;40.386;-3.710;2022-12-18T16:43:47;12.50;66.00
43541;DHT22;29549;40.386;-3.710;2022-12-18T16:53:49;12.40;66.70
43541;DHT22;29549;40.386;-3.710;2022-12-18T17:03:53;12.40;66.60
43541;DHT22;29549;40.386;-3.710;2022-12-18T17:13:55;12.30;67.30
43541;DHT22;29549;40.386;-3.710;2022-12-18T17:23:59;12.20;67.20
43541;DHT22;29549;40.386;-3.710;2022-12-18T17:34:03;12.20;67.90
43541;DHT22;29549;40.386;-3.710;2022-12-18T17:44:05;12.40;70.10
43541;DHT22;29549;40.386;-3.710;2022-12-18T17:54:07;12.30;73.80
43541;DHT22;29549;40.386;-3.710;2022-12-18T18:04:09;12.60;71.00
43541;DHT22;29549;40.386;-3.710;2022-12-18T18:14:18;12.20;69.70
43541;DHT22;29549;40.386;-3.710;2022-12-18T18:24:22;12.10;69.80
43541;DHT22;29549;40.386;-3.710;2022-12-18T18:34:26;11.90;70.70
43541;DHT22;29549;40.386;-3.710;2022-12-18T18:44:28;11.80;72.70
43541;DHT22;29549;40.386;-3.710;2022-12-18T18:54:30;12.00;74.10
43541;DHT22;29549;40.386;-3.710;2022-12-18T19:04:33;12.20;73.10
43541;DHT22;29549;40.386;-3.710;2022-12-18T19:14:35;11.60;72.90
43541;DHT22;29549;40.386;-3.710;2022-12-18T19:24:37;11.50;73.20
43541;DHT22;29549;40.386;-3.710;2022-12-18T19:34:39;11.30;73.00
43541;DHT22;29549;40.386;-3.710;2022-12-18T19:44:41;11.40;74.30
43541;DHT22;29549;40.386;-3.710;2022-12-18T19:54:42;12.00;76.90
43541;DHT22;29549;40.386;-3.710;2022-12-18T20:04:45;11.90;72.10
43541;DHT22;29549;40.386;-3.710;2022-12-18T20:14:48;11.10;72.30
43541;DHT22;29549;40.386;-3.710;2022-12-18T20:24:50;10.70;73.10
43541;DHT22;29549;40.386;-3.710;2022-12-18T20:34:52;10.50;73.70
43541;DHT22;29549;40.386;-3.710;2022-12-18T20:44:54;10.30;74.00
43541;DHT22;29549;40.386;-3.710;2022-12-18T20:54:56;10.20;74.40
43541;DHT22;29549;40.386;-3.710;2022-12-18T21:04:58;10.00;74.70
43541;DHT22;29549;40.386;-3.710;2022-12-18T21:15:00;9.90;75.00
43541;DHT22;29549;40.386;-3.710;2022-12-18T21:25:04;9.70;74.90
43541;DHT22;29549;40.386;-3.710;2022-12-18T21:35:06;9.60;75.10
43541;DHT22;29549;40.386;-3.710;2022-12-18T21:45:08;9.50;75.30
43541;DHT22;29549;40.386;-3.710;2022-12-18T21:55:10;9.40;75.70
43541;DHT22;29549;40.386;-3.710;2022-12-18T22:05:13;9.50;75.40
43541;DHT22;29549;40.386;-3.710;2022-12-18T22:15:15;9.40;75.60
43541;DHT22;29549;40.386;-3.710;2022-12-18T22:25:19;9.30;75.80
43541;DHT22;29549;40.386;-3.710;2022-12-18T22:35:21;9.20;75.90
43541;DHT22;29549;40.386;-3.710;2022-12-18T22:45:25;9.20;76.10
43541;DHT22;29549;40.386;-3.710;2022-12-18T22:55:27;9.10;76.30
43541;DHT22;29549;40.386;-3.710;2022-12-18T23:05:30;9.00;76.50
43541;DHT22;29549;40.386;-3.710;2022-12-18T23:15:32;9.00;76.60
43541;DHT22;29549;40.386;-3.710;2022-12-18T23:25:35;8.90;76.80
43541;DHT22;29549;40.386;-3.710;2022-12-18T23:35:37;8.90;76.90
43541;DHT22;29549;40.386;-3.710;2022-12-18T23:45:39;8.80;77.00
43541;DHT22;29549;40.386;-3.710;2022-12-18T23:55:43;8.80;77.00
